sensor_id;sensor_type;location;lat;lon;timestamp;P1;durP1;ratioP1;P2;durP2;ratioP2
50533;SDS011;60631;49.236;8.398;2022-07-29T08:51:44;5.97;;;3.50;;
50533;SDS011;60631;49.236;8.398;2022-07-29T08:54:46;4.10;;;3.70;;
50533;SDS011;60631;49.236;8.398;2022-07-29T08:57:47;4.65;;;3.50;;
50533;SDS011;60631;49.236;8.398;2022-07-29T09:00:52;3.58;;;3.17;;
50533;SDS011;60631;49.236;8.398;2022-07-29T09:03:55;3.88;;;3.50;;
50533;SDS011;60631;49.236;8.398;2022-07-29T09:06:57;4.22;;;3.50;;
50533;SDS011;60631;49.236;8.398;2022-07-29T09:10:00;16.98;;;3.70;;
50533;SDS011;60631;49.236;8.398;2022-07-29T09:13:02;4.10;;;2.92;;
50533;SDS011;60631;49.236;8.398;2022-07-29T09:16:03;5.45;;;3.75;;
50533;SDS011;60631;49.236;8.398;2022-07-29T09:19:07;4.28;;;3.13;;
50533;SDS011;60631;49.236;8.398;2022-07-29T09:22:28;5.35;;;3.03;;
50533;SDS011;60631;49.236;8.398;2022-07-29T09:25:37;4.22;;;3.30;;
50533;SDS011;60631;49.236;8.398;2022-07-29T09:28:41;4.30;;;2.92;;
50533;SDS011;60631;49.236;8.398;2022-07-29T09:31:52;3.63;;;2.70;;
50533;SDS011;60631;49.236;8.398;2022-07-29T09:38:14;3.85;;;3.05;;
50533;SDS011;60631;49.236;8.398;2022-07-29T09:41:15;4.13;;;3.10;;
50533;SDS011;60631;49.236;8.398;2022-07-29T09:44:16;3.88;;;3.17;;
50533;SDS011;60631;49.236;8.398;2022-07-29T09:47:18;3.38;;;2.97;;
50533;SDS011;60631;49.236;8.398;2022-07-29T09:50:19;4.97;;;3.13;;
50533;SDS011;60631;49.236;8.398;2022-07-29T09:56:38;4.78;;;3.10;;
50533;SDS011;60631;49.236;8.398;2022-07-29T09:59:45;5.38;;;3.00;;
50533;SDS011;60631;49.236;8.398;2022-07-29T10:09:08;3.57;;;3.17;;
50533;SDS011;60631;49.236;8.398;2022-07-29T10:12:11;5.10;;;2.67;;
50533;SDS011;60631;49.236;8.398;2022-07-29T10:15:16;5.88;;;3.50;;
50533;SDS011;60631;49.236;8.398;2022-07-29T10:18:18;3.70;;;3.30;;
50533;SDS011;60631;49.236;8.398;2022-07-29T10:21:20;3.53;;;3.22;;
50533;SDS011;60631;49.236;8.398;2022-07-29T10:24:21;3.58;;;3.03;;
50533;SDS011;60631;49.236;8.398;2022-07-29T10:27:23;3.65;;;3.05;;
50533;SDS011;60631;49.236;8.398;2022-07-29T10:30:24;4.10;;;3.20;;
50533;SDS011;60631;49.236;8.398;2022-07-29T10:37:33;3.83;;;3.30;;
50533;SDS011;60631;49.236;8.398;2022-07-29T10:41:11;3.53;;;3.00;;
50533;SDS011;60631;49.236;8.398;2022-07-29T10:44:26;3.67;;;3.00;;
50533;SDS011;60631;49.236;8.398;2022-07-29T10:47:28;3.20;;;2.80;;
50533;SDS011;60631;49.236;8.398;2022-07-29T10:54:00;4.75;;;2.80;;
50533;SDS011;60631;49.236;8.398;2022-07-29T11:00:27;3.45;;;3.10;;
50533;SDS011;60631;49.236;8.398;2022-07-29T11:03:44;3.50;;;3.00;;
50533;SDS011;60631;49.236;8.398;2022-07-29T11:13:17;4.38;;;3.10;;
50533;SDS011;60631;49.236;8.398;2022-07-29T11:16:59;6.10;;;3.17;;
50533;SDS011;60631;49.236;8.398;2022-07-29T11:23:45;3.85;;;3.15;;
50533;SDS011;60631;49.236;8.398;2022-07-29T11:30:07;3.45;;;3.15;;
50533;SDS011;60631;49.236;8.398;2022-07-29T11:33:26;3.60;;;3.10;;
50533;SDS011;60631;49.236;8.398;2022-07-29T11:36:36;5.75;;;3.00;;
50533;SDS011;60631;49.236;8.398;2022-07-29T11:43:07;4.40;;;2.95;;
50533;SDS011;60631;49.236;8.398;2022-07-29T11:46:08;7.05;;;3.20;;
50533;SDS011;60631;49.236;8.398;2022-07-29T11:49:10;4.50;;;2.92;;
50533;SDS011;60631;49.236;8.398;2022-07-29T11:52:12;3.38;;;2.78;;
50533;SDS011;60631;49.236;8.398;2022-07-29T11:55:14;5.07;;;2.88;;
50533;SDS011;60631;49.236;8.398;2022-07-29T12:01:22;3.00;;;2.80;;
50533;SDS011;60631;49.236;8.398;2022-07-29T12:04:25;2.90;;;2.70;;
50533;SDS011;60631;49.236;8.398;2022-07-29T12:07:27;3.03;;;2.72;;
50533;SDS011;60631;49.236;8.398;2022-07-29T12:10:33;4.50;;;2.90;;
50533;SDS011;60631;49.236;8.398;2022-07-29T12:13:38;3.10;;;2.65;;
50533;SDS011;60631;49.236;8.398;2022-07-29T12:16:39;4.15;;;2.80;;
50533;SDS011;60631;49.236;8.398;2022-07-29T12:19:43;3.10;;;2.88;;
50533;SDS011;60631;49.236;8.398;2022-07-29T12:22:44;3.17;;;2.92;;
50533;SDS011;60631;49.236;8.398;2022-07-29T12:25:45;3.85;;;2.65;;
50533;SDS011;60631;49.236;8.398;2022-07-29T12:28:47;6.40;;;3.05;;
50533;SDS011;60631;49.236;8.398;2022-07-29T12:31:52;2.97;;;2.78;;
50533;SDS011;60631;49.236;8.398;2022-07-29T12:34:57;4.80;;;3.47;;
50533;SDS011;60631;49.236;8.398;2022-07-29T12:37:58;3.33;;;3.00;;
50533;SDS011;60631;49.236;8.398;2022-07-29T12:40:59;3.30;;;3.00;;
50533;SDS011;60631;49.236;8.398;2022-07-29T12:44:00;4.47;;;3.10;;
50533;SDS011;60631;49.236;8.398;2022-07-29T12:47:02;5.93;;;3.13;;
50533;SDS011;60631;49.236;8.398;2022-07-29T12:50:10;4.63;;;3.10;;
50533;SDS011;60631;49.236;8.398;2022-07-29T12:53:15;3.88;;;2.92;;
50533;SDS011;60631;49.236;8.398;2022-07-29T12:56:16;3.60;;;3.00;;
50533;SDS011;60631;49.236;8.398;2022-07-29T12:59:18;4.00;;;3.22;;
50533;SDS011;60631;49.236;8.398;2022-07-29T13:02:22;3.33;;;3.03;;
50533;SDS011;60631;49.236;8.398;2022-07-29T13:05:23;4.25;;;3.10;;
50533;SDS011;60631;49.236;8.398;2022-07-29T13:08:24;5.45;;;3.00;;
50533;SDS011;60631;49.236;8.398;2022-07-29T13:14:56;3.42;;;2.75;;
50533;SDS011;60631;49.236;8.398;2022-07-29T13:17:57;3.03;;;2.72;;
50533;SDS011;60631;49.236;8.398;2022-07-29T13:21:15;2.72;;;2.53;;
50533;SDS011;60631;49.236;8.398;2022-07-29T13:24:16;3.60;;;2.70;;
50533;SDS011;60631;49.236;8.398;2022-07-29T13:27:18;2.97;;;2.67;;
50533;SDS011;60631;49.236;8.398;2022-07-29T13:30:20;3.40;;;2.83;;
50533;SDS011;60631;49.236;8.398;2022-07-29T13:33:22;3.10;;;2.70;;
50533;SDS011;60631;49.236;8.398;2022-07-29T13:36:24;2.88;;;2.63;;
50533;SDS011;60631;49.236;8.398;2022-07-29T13:39:25;2.92;;;2.72;;
50533;SDS011;60631;49.236;8.398;2022-07-29T13:42:26;2.90;;;2.70;;
50533;SDS011;60631;49.236;8.398;2022-07-29T13:45:27;2.90;;;2.70;;
50533;SDS011;60631;49.236;8.398;2022-07-29T13:48:28;4.38;;;2.63;;
50533;SDS011;60631;49.236;8.398;2022-07-29T13:51:29;3.13;;;2.30;;
50533;SDS011;60631;49.236;8.398;2022-07-29T13:54:30;3.10;;;2.10;;
50533;SDS011;60631;49.236;8.398;2022-07-29T13:57:31;2.80;;;2.30;;
50533;SDS011;60631;49.236;8.398;2022-07-29T14:00:32;3.33;;;1.80;;
50533;SDS011;60631;49.236;8.398;2022-07-29T14:03:33;3.50;;;1.70;;
50533;SDS011;60631;49.236;8.398;2022-07-29T14:06:34;5.15;;;1.73;;
50533;SDS011;60631;49.236;8.398;2022-07-29T14:09:35;1.92;;;1.80;;
50533;SDS011;60631;49.236;8.398;2022-07-29T14:12:37;2.25;;;2.00;;
50533;SDS011;60631;49.236;8.398;2022-07-29T14:15:38;2.88;;;1.73;;
50533;SDS011;60631;49.236;8.398;2022-07-29T14:18:39;1.98;;;1.75;;
50533;SDS011;60631;49.236;8.398;2022-07-29T14:21:40;3.13;;;1.60;;
50533;SDS011;60631;49.236;8.398;2022-07-29T14:24:41;2.83;;;1.67;;
50533;SDS011;60631;49.236;8.398;2022-07-29T14:27:43;2.35;;;1.70;;
50533;SDS011;60631;49.236;8.398;2022-07-29T14:30:44;1.95;;;1.52;;
50533;SDS011;60631;49.236;8.398;2022-07-29T14:33:45;1.65;;;1.52;;
50533;SDS011;60631;49.236;8.398;2022-07-29T14:36:46;1.60;;;1.50;;
50533;SDS011;60631;49.236;8.398;2022-07-29T14:39:47;3.00;;;1.50;;
50533;SDS011;60631;49.236;8.398;2022-07-29T14:42:48;2.70;;;1.40;;
50533;SDS011;60631;49.236;8.398;2022-07-29T14:45:49;2.33;;;1.33;;
50533;SDS011;60631;49.236;8.398;2022-07-29T14:48:50;2.80;;;1.55;;
50533;SDS011;60631;49.236;8.398;2022-07-29T14:51:51;2.03;;;1.30;;
50533;SDS011;60631;49.236;8.398;2022-07-29T14:54:52;1.98;;;1.50;;
50533;SDS011;60631;49.236;8.398;2022-07-29T14:57:53;1.52;;;1.30;;
50533;SDS011;60631;49.236;8.398;2022-07-29T15:00:55;2.53;;;1.40;;
50533;SDS011;60631;49.236;8.398;2022-07-29T15:03:56;1.58;;;1.30;;
50533;SDS011;60631;49.236;8.398;2022-07-29T15:06:57;1.50;;;1.40;;
50533;SDS011;60631;49.236;8.398;2022-07-29T15:09:58;4.15;;;1.33;;
50533;SDS011;60631;49.236;8.398;2022-07-29T15:12:59;1.40;;;1.30;;
50533;SDS011;60631;49.236;8.398;2022-07-29T15:16:00;3.03;;;1.30;;
50533;SDS011;60631;49.236;8.398;2022-07-29T15:19:02;2.30;;;1.25;;
50533;SDS011;60631;49.236;8.398;2022-07-29T15:22:03;1.48;;;1.35;;
50533;SDS011;60631;49.236;8.398;2022-07-29T15:25:05;3.92;;;1.23;;
50533;SDS011;60631;49.236;8.398;2022-07-29T15:28:06;1.17;;;1.10;;
50533;SDS011;60631;49.236;8.398;2022-07-29T15:31:08;1.90;;;1.10;;
50533;SDS011;60631;49.236;8.398;2022-07-29T15:34:09;4.10;;;1.30;;
50533;SDS011;60631;49.236;8.398;2022-07-29T15:37:10;1.98;;;1.20;;
50533;SDS011;60631;49.236;8.398;2022-07-29T15:40:12;2.30;;;1.30;;
50533;SDS011;60631;49.236;8.398;2022-07-29T15:43:13;1.10;;;1.00;;
50533;SDS011;60631;49.236;8.398;2022-07-29T15:46:14;1.33;;;1.20;;
50533;SDS011;60631;49.236;8.398;2022-07-29T15:49:36;2.38;;;1.17;;
50533;SDS011;60631;49.236;8.398;2022-07-29T15:52:41;2.50;;;1.20;;
50533;SDS011;60631;49.236;8.398;2022-07-29T15:55:42;2.45;;;1.33;;
50533;SDS011;60631;49.236;8.398;2022-07-29T15:58:43;1.45;;;1.10;;
50533;SDS011;60631;49.236;8.398;2022-07-29T16:01:44;1.20;;;1.02;;
50533;SDS011;60631;49.236;8.398;2022-07-29T16:04:46;1.40;;;1.30;;
50533;SDS011;60631;49.236;8.398;2022-07-29T16:07:47;3.08;;;1.40;;
50533;SDS011;60631;49.236;8.398;2022-07-29T16:10:48;3.13;;;1.27;;
50533;SDS011;60631;49.236;8.398;2022-07-29T16:13:49;1.73;;;1.10;;
50533;SDS011;60631;49.236;8.398;2022-07-29T16:16:50;1.63;;;1.33;;
50533;SDS011;60631;49.236;8.398;2022-07-29T16:19:51;1.58;;;1.20;;
50533;SDS011;60631;49.236;8.398;2022-07-29T16:22:52;1.10;;;1.05;;
50533;SDS011;60631;49.236;8.398;2022-07-29T16:25:54;1.83;;;1.30;;
50533;SDS011;60631;49.236;8.398;2022-07-29T16:28:55;1.55;;;1.15;;
50533;SDS011;60631;49.236;8.398;2022-07-29T16:31:56;13.98;;;6.00;;
50533;SDS011;60631;49.236;8.398;2022-07-29T16:34:57;2.45;;;1.42;;
50533;SDS011;60631;49.236;8.398;2022-07-29T16:37:58;1.60;;;1.10;;
50533;SDS011;60631;49.236;8.398;2022-07-29T16:40:59;2.00;;;1.30;;
50533;SDS011;60631;49.236;8.398;2022-07-29T16:44:00;1.45;;;1.17;;
50533;SDS011;60631;49.236;8.398;2022-07-29T16:47:02;1.25;;;1.02;;
50533;SDS011;60631;49.236;8.398;2022-07-29T16:50:03;3.72;;;1.30;;
50533;SDS011;60631;49.236;8.398;2022-07-29T16:53:04;3.50;;;1.20;;
50533;SDS011;60631;49.236;8.398;2022-07-29T16:56:05;1.80;;;1.27;;
50533;SDS011;60631;49.236;8.398;2022-07-29T16:59:06;3.75;;;1.10;;
50533;SDS011;60631;49.236;8.398;2022-07-29T17:02:07;1.55;;;1.23;;
50533;SDS011;60631;49.236;8.398;2022-07-29T17:05:09;1.48;;;1.10;;
50533;SDS011;60631;49.236;8.398;2022-07-29T17:08:11;3.50;;;1.00;;
50533;SDS011;60631;49.236;8.398;2022-07-29T17:11:12;4.13;;;1.30;;
50533;SDS011;60631;49.236;8.398;2022-07-29T17:14:13;2.10;;;1.33;;
50533;SDS011;60631;49.236;8.398;2022-07-29T17:17:15;2.47;;;1.10;;
50533;SDS011;60631;49.236;8.398;2022-07-29T17:20:16;1.70;;;1.00;;
50533;SDS011;60631;49.236;8.398;2022-07-29T17:23:17;2.20;;;0.98;;
50533;SDS011;60631;49.236;8.398;2022-07-29T17:26:19;1.33;;;1.00;;
50533;SDS011;60631;49.236;8.398;2022-07-29T17:29:20;1.63;;;1.10;;
50533;SDS011;60631;49.236;8.398;2022-07-29T17:32:21;2.40;;;1.17;;
50533;SDS011;60631;49.236;8.398;2022-07-29T17:35:22;1.20;;;1.10;;
50533;SDS011;60631;49.236;8.398;2022-07-29T17:38:42;1.23;;;1.10;;
50533;SDS011;60631;49.236;8.398;2022-07-29T17:41:43;2.45;;;1.20;;
50533;SDS011;60631;49.236;8.398;2022-07-29T17:44:46;2.22;;;1.40;;
50533;SDS011;60631;49.236;8.398;2022-07-29T17:47:47;2.47;;;1.30;;
50533;SDS011;60631;49.236;8.398;2022-07-29T17:50:48;1.50;;;1.30;;
50533;SDS011;60631;49.236;8.398;2022-07-29T17:53:49;1.30;;;1.20;;
50533;SDS011;60631;49.236;8.398;2022-07-29T17:56:50;3.08;;;1.40;;
50533;SDS011;60631;49.236;8.398;2022-07-29T17:59:51;2.30;;;1.40;;
50533;SDS011;60631;49.236;8.398;2022-07-29T18:02:52;2.05;;;1.20;;
50533;SDS011;60631;49.236;8.398;2022-07-29T18:05:53;2.85;;;1.48;;
50533;SDS011;60631;49.236;8.398;2022-07-29T18:08:54;3.25;;;1.38;;
50533;SDS011;60631;49.236;8.398;2022-07-29T18:11:55;2.30;;;1.30;;
50533;SDS011;60631;49.236;8.398;2022-07-29T18:14:57;2.05;;;1.20;;
50533;SDS011;60631;49.236;8.398;2022-07-29T18:17:58;1.83;;;1.30;;
50533;SDS011;60631;49.236;8.398;2022-07-29T18:20:59;2.70;;;1.20;;
50533;SDS011;60631;49.236;8.398;2022-07-29T18:24:00;4.05;;;1.25;;
50533;SDS011;60631;49.236;8.398;2022-07-29T18:27:02;4.20;;;1.40;;
50533;SDS011;60631;49.236;8.398;2022-07-29T18:30:03;2.33;;;1.20;;
50533;SDS011;60631;49.236;8.398;2022-07-29T18:33:05;1.38;;;1.27;;
50533;SDS011;60631;49.236;8.398;2022-07-29T18:36:08;1.67;;;1.30;;
50533;SDS011;60631;49.236;8.398;2022-07-29T18:39:09;3.90;;;1.30;;
50533;SDS011;60631;49.236;8.398;2022-07-29T18:42:10;3.03;;;1.27;;
50533;SDS011;60631;49.236;8.398;2022-07-29T18:45:11;1.42;;;1.33;;
50533;SDS011;60631;49.236;8.398;2022-07-29T18:48:12;1.88;;;1.65;;
50533;SDS011;60631;49.236;8.398;2022-07-29T18:51:13;4.78;;;1.38;;
50533;SDS011;60631;49.236;8.398;2022-07-29T18:54:15;1.80;;;1.30;;
50533;SDS011;60631;49.236;8.398;2022-07-29T18:57:19;1.77;;;1.40;;
50533;SDS011;60631;49.236;8.398;2022-07-29T19:00:20;1.83;;;1.30;;
50533;SDS011;60631;49.236;8.398;2022-07-29T19:03:22;1.67;;;1.58;;
50533;SDS011;60631;49.236;8.398;2022-07-29T19:06:23;2.53;;;1.75;;
